createdAt,value
2023-02-17T00:01:16.338Z,20.30
2023-02-17T00:03:48.216Z,20.40
2023-02-17T00:06:18.372Z,20.40
2023-02-17T00:08:47.636Z,20.40
2023-02-17T00:11:16.524Z,20.40
2023-02-17T00:13:44.710Z,20.30
2023-02-17T00:16:17.417Z,20.40
2023-02-17T00:18:47.050Z,20.30
2023-02-17T00:21:17.924Z,20.30
2023-02-17T00:26:29.504Z,20.20
2023-02-17T00:28:59.066Z,20.20
2023-02-17T00:31:27.203Z,20.20
2023-02-17T00:33:57.311Z,20.10
2023-02-17T00:36:26.700Z,20.20
2023-02-17T00:38:56.385Z,20.10
2023-02-17T00:41:25.287Z,20.10
2023-02-17T00:43:53.417Z,20.00
2023-02-17T00:46:21.728Z,20.00
2023-02-17T00:48:50.386Z,20.00
2023-02-17T00:51:20.689Z,20.00
2023-02-17T00:53:48.801Z,20.00
2023-02-17T00:56:17.221Z,20.00
2023-02-17T00:58:46.268Z,19.90
2023-02-17T01:01:14.473Z,19.90
2023-02-17T01:03:43.121Z,19.90
2023-02-17T01:06:19.579Z,19.90
2023-02-17T01:08:49.044Z,19.90
2023-02-17T01:11:19.495Z,19.90
2023-02-17T01:13:47.617Z,19.90
2023-02-17T01:16:20.763Z,19.90
2023-02-17T01:18:48.862Z,19.90
2023-02-17T01:21:18.125Z,19.90
2023-02-17T01:23:46.177Z,19.90
2023-02-17T01:26:21.216Z,19.90
2023-02-17T01:28:50.574Z,19.90
2023-02-17T01:31:19.138Z,19.90
2023-02-17T01:33:47.345Z,19.90
2023-02-17T01:36:17.048Z,19.90
2023-02-17T01:38:46.441Z,19.90
2023-02-17T01:41:15.564Z,19.90
2023-02-17T01:44:05.078Z,19.90
2023-02-17T01:46:34.478Z,19.90
2023-02-17T01:49:04.372Z,19.90
2023-02-17T01:51:35.964Z,19.80
2023-02-17T01:54:07.332Z,19.80
2023-02-17T01:56:38.548Z,19.80
2023-02-17T01:59:11.649Z,19.70
2023-02-17T02:01:40.559Z,19.70
2023-02-17T02:04:09.532Z,19.70
2023-02-17T02:06:40.188Z,19.80
2023-02-17T02:09:10.157Z,19.80
2023-02-17T02:11:38.466Z,19.70
2023-02-17T02:14:09.875Z,19.70
2023-02-17T02:16:45.679Z,19.80
2023-02-17T02:19:38.649Z,19.80
2023-02-17T02:22:27.777Z,19.80
2023-02-17T02:25:05.978Z,19.80
2023-02-17T02:27:49.413Z,19.80
2023-02-17T02:30:29.298Z,19.80
2023-02-17T02:33:13.461Z,19.70
2023-02-17T02:35:51.984Z,19.70
2023-02-17T02:38:26.598Z,19.70
2023-02-17T02:41:00.446Z,19.70
2023-02-17T02:43:28.656Z,19.70
2023-02-17T02:45:56.745Z,19.70
2023-02-17T02:48:26.353Z,19.70
2023-02-17T02:51:06.617Z,19.60
2023-02-17T02:53:55.436Z,19.60
2023-02-17T02:56:36.461Z,19.60
2023-02-17T02:59:11.327Z,19.60
2023-02-17T03:01:49.612Z,19.60
2023-02-17T03:04:26.572Z,19.60
2023-02-17T03:06:59.050Z,19.60
2023-02-17T03:09:29.221Z,19.60
2023-02-17T03:11:58.865Z,19.60
2023-02-17T03:14:27.700Z,19.60
2023-02-17T03:16:56.442Z,19.60
2023-02-17T03:19:26.541Z,19.60
2023-02-17T03:21:58.287Z,19.60
2023-02-17T03:24:26.398Z,19.60
2023-02-17T03:26:54.454Z,19.60
2023-02-17T03:29:22.481Z,19.60
2023-02-17T03:31:50.623Z,19.60
2023-02-17T03:34:18.664Z,19.60
2023-02-17T03:36:48.177Z,19.60
2023-02-17T03:39:16.789Z,19.60
2023-02-17T03:41:44.896Z,19.60
2023-02-17T03:44:12.996Z,19.50
2023-02-17T03:46:41.330Z,19.50
2023-02-17T03:49:09.413Z,19.50
2023-02-17T03:51:37.486Z,19.50
2023-02-17T03:54:07.584Z,19.60
2023-02-17T03:56:35.668Z,19.60
2023-02-17T03:59:04.011Z,19.60
2023-02-17T04:01:32.112Z,19.60
2023-02-17T04:04:00.231Z,19.60
2023-02-17T04:06:28.316Z,19.60
2023-02-17T04:08:56.331Z,19.60
2023-02-17T04:11:25.823Z,19.60
2023-02-17T04:13:54.016Z,19.60
2023-02-17T04:16:22.133Z,19.60
2023-02-17T04:18:50.165Z,19.60
2023-02-17T04:21:18.236Z,19.60
2023-02-17T04:23:46.606Z,19.60
2023-02-17T04:26:14.692Z,19.50
2023-02-17T04:28:44.435Z,19.50
2023-02-17T04:31:12.540Z,19.50
2023-02-17T04:33:40.661Z,19.50
2023-02-17T04:36:09.235Z,19.50
2023-02-17T04:38:37.328Z,19.50
2023-02-17T04:41:06.333Z,19.40
2023-02-17T04:43:34.397Z,19.40
2023-02-17T04:46:04.314Z,19.40
2023-02-17T04:48:32.624Z,19.40
2023-02-17T04:51:00.687Z,19.50
2023-02-17T04:53:28.797Z,19.60
2023-02-17T04:55:56.832Z,19.70
2023-02-17T04:58:25.013Z,19.70
2023-02-17T05:00:53.066Z,19.80
2023-02-17T05:03:22.852Z,19.80
2023-02-17T05:05:51.036Z,19.90
2023-02-17T05:08:19.139Z,19.90
2023-02-17T05:10:47.178Z,19.90
2023-02-17T05:13:15.232Z,20.00
2023-02-17T05:15:44.645Z,20.00
2023-02-17T05:18:12.860Z,20.00
2023-02-17T05:20:42.533Z,20.00
2023-02-17T05:23:10.731Z,20.10
2023-02-17T05:25:40.888Z,20.10
2023-02-17T05:28:08.985Z,20.10
2023-02-17T05:30:37.040Z,20.10
2023-02-17T05:33:05.183Z,20.10
2023-02-17T05:35:35.106Z,20.10
2023-02-17T05:38:04.458Z,20.10
2023-02-17T05:40:32.493Z,20.20
2023-02-17T05:43:00.557Z,20.20
2023-02-17T05:45:28.568Z,20.20
2023-02-17T05:47:56.643Z,20.20
2023-02-17T05:50:24.700Z,20.20
2023-02-17T05:52:52.903Z,20.20
2023-02-17T05:55:23.315Z,20.20
2023-02-17T05:57:51.369Z,20.20
2023-02-17T06:00:19.634Z,20.20
2023-02-17T06:02:47.804Z,20.30
2023-02-17T06:05:16.177Z,20.20
2023-02-17T06:07:44.281Z,20.30
2023-02-17T06:10:12.904Z,20.20
2023-02-17T06:12:42.366Z,20.10
2023-02-17T06:15:10.731Z,20.00
2023-02-17T06:17:38.973Z,20.00
2023-02-17T06:20:08.393Z,20.10
2023-02-17T06:22:36.601Z,20.10
2023-02-17T06:25:05.006Z,20.10
2023-02-17T06:27:33.213Z,20.00
2023-02-17T06:30:02.771Z,19.90
2023-02-17T06:32:30.899Z,19.90
2023-02-17T06:34:58.945Z,19.90
2023-02-17T06:37:27.002Z,19.90
2023-02-17T06:39:55.069Z,19.80
2023-02-17T06:42:23.333Z,19.90
2023-02-17T06:44:51.357Z,19.90
2023-02-17T06:47:20.767Z,20.00
2023-02-17T06:49:48.803Z,20.00
2023-02-17T06:52:17.105Z,20.10
2023-02-17T06:54:47.257Z,20.10
2023-02-17T06:57:15.312Z,20.10
2023-02-17T06:59:43.424Z,20.20
2023-02-17T07:02:13.073Z,20.20
2023-02-17T07:04:43.624Z,20.20
2023-02-17T07:07:12.157Z,20.20
2023-02-17T07:09:41.333Z,20.20
2023-02-17T07:12:09.411Z,20.30
2023-02-17T07:14:38.141Z,20.30
2023-02-17T07:17:06.224Z,20.20
2023-02-17T07:19:34.274Z,20.20
2023-02-17T07:22:03.724Z,20.20
2023-02-17T07:24:31.948Z,20.20
2023-02-17T07:27:00.942Z,20.20
2023-02-17T07:29:29.150Z,20.30
2023-02-17T07:31:57.206Z,20.30
2023-02-17T07:34:25.352Z,20.30
2023-02-17T07:36:53.422Z,20.30
2023-02-17T07:39:22.861Z,20.40
2023-02-17T07:41:50.926Z,20.40
2023-02-17T07:44:19.305Z,20.50
2023-02-17T07:46:47.342Z,20.50
2023-02-17T07:49:15.402Z,20.50
2023-02-17T07:51:43.462Z,20.50
2023-02-17T07:54:13.272Z,20.50
2023-02-17T07:56:42.802Z,20.50
2023-02-17T07:59:11.207Z,20.50
2023-02-17T08:01:40.540Z,20.50
2023-02-17T08:04:08.690Z,20.50
2023-02-17T08:06:38.516Z,20.50
2023-02-17T08:09:24.116Z,20.60
2023-02-17T08:12:10.927Z,20.60
2023-02-17T08:14:39.082Z,20.60
2023-02-17T08:17:07.766Z,20.60
2023-02-17T08:19:47.626Z,20.60
2023-02-17T08:22:16.961Z,20.60
2023-02-17T08:24:45.202Z,20.60
2023-02-17T08:27:15.368Z,20.60
2023-02-17T08:29:43.842Z,20.60
2023-02-17T08:32:12.035Z,20.60
2023-02-17T08:34:40.256Z,20.60
2023-02-17T08:37:08.909Z,20.60
2023-02-17T08:39:37.684Z,20.60
2023-02-17T08:42:06.150Z,20.60
2023-02-17T08:44:37.933Z,20.60
2023-02-17T08:47:06.825Z,20.60
2023-02-17T08:49:35.903Z,20.70
2023-02-17T08:52:05.068Z,20.60
2023-02-17T08:54:33.347Z,20.70
2023-02-17T08:57:01.467Z,20.70
2023-02-17T08:59:29.665Z,20.70
2023-02-17T09:01:59.580Z,20.70
2023-02-17T09:04:27.485Z,20.70
2023-02-17T09:06:57.112Z,20.70
2023-02-17T09:09:27.841Z,20.80
2023-02-17T09:11:57.407Z,20.80
2023-02-17T09:14:26.051Z,20.80
2023-02-17T09:16:55.193Z,20.80
2023-02-17T09:19:25.532Z,20.80
2023-02-17T09:21:53.957Z,20.80
2023-02-17T09:24:22.030Z,20.80
2023-02-17T09:26:50.139Z,20.80
2023-02-17T09:29:18.236Z,20.80
2023-02-17T09:31:46.522Z,20.90
2023-02-17T09:34:15.691Z,20.90
2023-02-17T09:36:45.778Z,20.90
2023-02-17T09:39:14.866Z,20.90
2023-02-17T09:41:47.319Z,20.90
2023-02-17T09:44:23.037Z,20.90
2023-02-17T09:47:02.081Z,20.90
2023-02-17T09:49:37.817Z,20.90
2023-02-17T09:52:13.375Z,21.00
2023-02-17T09:54:51.230Z,21.00
2023-02-17T09:57:22.714Z,21.00
2023-02-17T09:59:56.739Z,21.00
2023-02-17T10:02:32.508Z,21.10
2023-02-17T10:05:06.835Z,21.10
2023-02-17T10:07:39.749Z,21.20
2023-02-17T10:10:12.490Z,21.20
2023-02-17T10:12:45.241Z,21.30
2023-02-17T10:15:17.893Z,21.30
2023-02-17T10:17:52.805Z,21.40
2023-02-17T10:20:24.749Z,21.40
2023-02-17T10:22:59.241Z,21.40
2023-02-17T10:25:42.675Z,21.50
2023-02-17T10:28:16.837Z,21.50
2023-02-17T10:30:49.926Z,21.50
2023-02-17T10:33:26.947Z,21.60
2023-02-17T10:36:00.991Z,21.60
2023-02-17T10:38:40.634Z,21.70
2023-02-17T10:41:14.677Z,21.80
2023-02-17T10:43:45.144Z,21.90
2023-02-17T10:46:16.665Z,22.00
2023-02-17T10:48:48.913Z,22.10
2023-02-17T10:51:19.610Z,22.10
2023-02-17T10:53:53.533Z,22.20
2023-02-17T10:56:24.789Z,22.20
2023-02-17T10:58:57.939Z,22.20
2023-02-17T11:01:26.816Z,22.20
2023-02-17T11:04:03.189Z,22.30
2023-02-17T11:06:33.505Z,22.50
2023-02-17T11:09:05.084Z,22.60
2023-02-17T11:11:35.861Z,22.70
2023-02-17T11:14:13.515Z,22.70
2023-02-17T11:16:44.678Z,22.80
2023-02-17T11:19:23.550Z,23.00
2023-02-17T11:21:52.284Z,23.10
2023-02-17T11:24:22.102Z,23.60
2023-02-17T11:26:58.638Z,24.00
2023-02-17T11:29:27.231Z,24.20
2023-02-17T11:31:57.288Z,24.20
2023-02-17T11:34:29.115Z,24.40
2023-02-17T11:37:02.638Z,24.60
2023-02-17T11:39:32.114Z,24.90
2023-02-17T11:42:00.192Z,25.20
2023-02-17T11:44:29.996Z,25.40
2023-02-17T11:47:07.811Z,25.40
2023-02-17T11:50:07.551Z,25.30
2023-02-17T11:52:52.446Z,25.20
2023-02-17T11:55:26.574Z,25.00
2023-02-17T11:58:13.756Z,25.00
2023-02-17T12:00:50.449Z,25.00
2023-02-17T12:03:43.561Z,25.30
2023-02-17T12:06:18.036Z,25.50
2023-02-17T12:09:03.710Z,25.60
2023-02-17T12:11:38.673Z,25.60
2023-02-17T12:14:20.709Z,26.00
2023-02-17T12:16:56.931Z,26.40
2023-02-17T12:19:39.027Z,26.70
2023-02-17T12:22:18.281Z,26.80
2023-02-17T12:24:59.267Z,26.50
2023-02-17T12:27:39.772Z,26.00
2023-02-17T12:30:22.179Z,25.50
2023-02-17T12:33:08.447Z,25.10
2023-02-17T12:35:46.366Z,24.60
2023-02-17T12:38:18.076Z,24.30
2023-02-17T12:40:51.124Z,24.20
2023-02-17T12:43:27.035Z,23.80
2023-02-17T12:45:58.061Z,23.60
2023-02-17T12:48:34.829Z,23.50
2023-02-17T12:51:08.788Z,23.50
2023-02-17T12:53:45.178Z,23.60
2023-02-17T12:56:45.551Z,23.60
2023-02-17T12:59:18.233Z,23.70
2023-02-17T13:02:01.731Z,23.70
2023-02-17T13:04:32.430Z,23.70
2023-02-17T13:07:33.871Z,23.60
2023-02-17T13:10:02.412Z,23.50
2023-02-17T13:12:40.948Z,23.50
2023-02-17T13:15:29.549Z,23.30
2023-02-17T13:18:01.369Z,23.00
2023-02-17T13:20:47.637Z,22.80
2023-02-17T13:23:27.311Z,22.70
2023-02-17T13:26:22.654Z,22.70
2023-02-17T13:28:53.283Z,22.70
2023-02-17T13:31:25.055Z,22.70
2023-02-17T13:33:55.551Z,22.70
2023-02-17T13:36:36.090Z,22.70
2023-02-17T13:39:08.539Z,22.70
2023-02-17T13:41:46.982Z,22.60
2023-02-17T13:44:30.857Z,22.60
2023-02-17T13:47:02.596Z,22.60
2023-02-17T13:49:35.129Z,22.60
2023-02-17T13:52:18.553Z,22.60
2023-02-17T13:54:54.384Z,22.50
2023-02-17T13:57:27.299Z,22.60
2023-02-17T14:00:07.022Z,22.50
2023-02-17T14:02:39.729Z,22.60
2023-02-17T14:05:18.880Z,22.50
2023-02-17T14:07:48.329Z,22.60
2023-02-17T14:10:25.672Z,22.60
2023-02-17T14:12:54.700Z,22.60
2023-02-17T14:15:25.176Z,22.60
2023-02-17T14:17:55.393Z,22.60
2023-02-17T14:20:32.385Z,22.60
2023-02-17T14:23:04.478Z,22.60
2023-02-17T14:25:34.780Z,22.70
2023-02-17T14:28:02.905Z,22.70
2023-02-17T14:30:33.797Z,22.70
2023-02-17T14:33:08.253Z,22.80
2023-02-17T14:35:39.339Z,22.80
2023-02-17T14:38:21.396Z,22.70
2023-02-17T14:40:49.784Z,22.70
2023-02-17T14:43:17.970Z,22.70
2023-02-17T14:45:46.273Z,22.60
2023-02-17T14:48:15.824Z,22.60
2023-02-17T14:50:44.806Z,22.70
2023-02-17T14:53:15.377Z,22.60
2023-02-17T14:55:47.833Z,22.60
2023-02-17T14:58:20.655Z,22.50
2023-02-17T15:00:49.024Z,22.50
2023-02-17T15:03:18.647Z,22.50
2023-02-17T15:05:47.130Z,22.50
2023-02-17T15:08:18.251Z,22.50
2023-02-17T15:10:46.870Z,22.50
2023-02-17T15:13:17.020Z,22.40
2023-02-17T15:15:47.579Z,22.40
2023-02-17T15:18:18.617Z,22.30
2023-02-17T15:20:49.615Z,22.30
2023-02-17T15:23:19.499Z,22.30
2023-02-17T15:25:48.273Z,22.30
2023-02-17T15:28:17.555Z,22.20
2023-02-17T15:30:49.786Z,22.20
2023-02-17T15:33:19.737Z,22.20
2023-02-17T15:35:48.144Z,22.20
2023-02-17T15:38:16.193Z,22.10
2023-02-17T15:40:44.321Z,22.10
2023-02-17T15:43:16.382Z,22.10
2023-02-17T15:45:44.614Z,22.10
2023-02-17T15:48:19.237Z,22.10
2023-02-17T15:50:48.657Z,22.00
2023-02-17T15:53:16.830Z,22.00
2023-02-17T15:55:44.979Z,22.00
2023-02-17T15:58:16.872Z,22.00
2023-02-17T16:00:46.486Z,22.00
2023-02-17T16:03:15.266Z,21.90
2023-02-17T16:05:43.965Z,21.90
2023-02-17T16:08:13.670Z,21.90
2023-02-17T16:10:45.395Z,21.90
2023-02-17T16:13:15.760Z,21.90
2023-02-17T16:15:44.784Z,21.90
2023-02-17T16:18:23.600Z,21.90
2023-02-17T16:20:52.782Z,21.90
2023-02-17T16:23:22.227Z,21.90
2023-02-17T16:25:51.309Z,21.90
2023-02-17T16:28:22.558Z,21.80
2023-02-17T16:30:51.784Z,21.90
2023-02-17T16:33:20.100Z,21.80
2023-02-17T16:35:50.784Z,21.80
2023-02-17T16:38:23.739Z,21.80
2023-02-17T16:40:53.630Z,21.80
2023-02-17T16:43:22.557Z,21.80
2023-02-17T16:45:55.474Z,21.80
2023-02-17T16:48:24.743Z,21.80
2023-02-17T16:50:53.306Z,21.70
2023-02-17T16:53:23.199Z,21.70
2023-02-17T16:55:51.789Z,21.70
2023-02-17T16:58:22.985Z,21.70
2023-02-17T17:00:53.015Z,21.70
2023-02-17T17:03:22.194Z,21.70
2023-02-17T17:05:52.212Z,21.70
2023-02-17T17:08:21.692Z,21.60
2023-02-17T17:10:51.444Z,21.60
2023-02-17T17:13:19.540Z,21.60
2023-02-17T17:15:48.018Z,21.60
2023-02-17T17:18:21.101Z,21.60
2023-02-17T17:20:49.484Z,21.60
2023-02-17T17:23:18.828Z,21.60
2023-02-17T17:25:48.557Z,21.60
2023-02-17T17:28:20.057Z,21.60
2023-02-17T17:30:48.537Z,21.60
2023-02-17T17:33:17.292Z,21.60
2023-02-17T17:35:45.451Z,21.50
2023-02-17T17:38:15.395Z,21.50
2023-02-17T17:40:49.235Z,21.50
2023-02-17T17:43:21.172Z,21.60
2023-02-17T17:45:50.272Z,21.60
2023-02-17T17:48:19.518Z,21.60
2023-02-17T17:50:49.440Z,21.60
2023-02-17T17:53:17.300Z,21.60
2023-02-17T17:55:45.511Z,21.60
2023-02-17T17:58:13.911Z,21.60
2023-02-17T18:00:43.346Z,21.60
2023-02-17T18:03:11.382Z,21.60
2023-02-17T18:05:39.462Z,21.50
2023-02-17T18:08:09.135Z,21.50
2023-02-17T18:10:40.025Z,21.50
2023-02-17T18:13:09.609Z,21.50
2023-02-17T18:15:37.884Z,21.50
2023-02-17T18:18:07.711Z,21.40
2023-02-17T18:20:35.978Z,21.40
2023-02-17T18:23:04.156Z,21.40
2023-02-17T18:25:32.437Z,21.40
2023-02-17T18:28:00.735Z,21.40
2023-02-17T18:30:29.241Z,21.40
2023-02-17T18:32:57.354Z,21.40
2023-02-17T18:35:26.880Z,21.40
2023-02-17T18:37:55.020Z,21.30
2023-02-17T18:40:23.665Z,21.40
2023-02-17T18:42:51.861Z,21.40
2023-02-17T18:45:20.021Z,21.40
2023-02-17T18:47:48.659Z,21.50
2023-02-17T18:50:17.337Z,21.60
2023-02-17T18:52:46.764Z,20.90
2023-02-17T18:55:15.281Z,20.50
2023-02-17T18:57:44.867Z,20.40
2023-02-17T19:00:15.497Z,20.40
2023-02-17T19:02:44.027Z,20.50
2023-02-17T19:05:13.532Z,20.60
2023-02-17T19:07:41.658Z,20.60
2023-02-17T19:10:12.322Z,20.60
2023-02-17T19:12:40.448Z,20.60
2023-02-17T19:15:09.081Z,20.70
2023-02-17T19:17:37.169Z,20.80
2023-02-17T19:20:05.663Z,20.90
2023-02-17T19:22:37.232Z,20.90
2023-02-17T19:25:06.131Z,20.90
2023-02-17T19:27:35.565Z,20.90
2023-02-17T19:30:03.801Z,20.90
2023-02-17T19:32:33.121Z,21.00
2023-02-17T19:35:01.185Z,21.00
2023-02-17T19:37:29.594Z,21.20
2023-02-17T19:39:57.695Z,21.50
2023-02-17T19:42:25.850Z,21.80
2023-02-17T19:44:55.256Z,22.00
2023-02-17T19:47:23.346Z,21.50
2023-02-17T19:49:51.382Z,21.30
2023-02-17T19:52:19.784Z,21.20
2023-02-17T19:54:49.439Z,21.20
2023-02-17T19:57:18.424Z,21.20
2023-02-17T19:59:46.764Z,21.20
2023-02-17T20:02:16.791Z,21.20
2023-02-17T20:04:45.434Z,21.20
2023-02-17T20:07:13.505Z,21.20
2023-02-17T20:09:41.534Z,21.20
2023-02-17T20:12:09.622Z,21.30
2023-02-17T20:14:38.543Z,21.30
2023-02-17T20:17:06.580Z,21.30
2023-02-17T20:19:37.773Z,21.30
2023-02-17T20:22:06.250Z,21.20
2023-02-17T20:24:34.873Z,21.20
2023-02-17T20:27:03.160Z,21.30
2023-02-17T20:29:31.294Z,21.30
2023-02-17T20:31:59.475Z,21.30
2023-02-17T20:34:31.361Z,21.20
2023-02-17T20:37:01.619Z,21.20
2023-02-17T20:39:30.104Z,21.20
2023-02-17T20:41:58.203Z,21.20
2023-02-17T20:44:27.927Z,21.20
2023-02-17T20:46:56.499Z,21.20
2023-02-17T20:49:25.337Z,21.20
2023-02-17T20:51:53.527Z,21.20
2023-02-17T20:54:24.752Z,21.20
2023-02-17T20:56:53.300Z,21.20
2023-02-17T20:59:22.607Z,21.20
2023-02-17T21:01:50.713Z,21.20
2023-02-17T21:04:18.829Z,21.20
2023-02-17T21:06:47.501Z,21.10
2023-02-17T21:09:18.213Z,21.10
2023-02-17T21:11:47.903Z,21.10
2023-02-17T21:14:16.223Z,21.10
2023-02-17T21:16:44.361Z,21.20
2023-02-17T21:19:12.442Z,21.10
2023-02-17T21:21:40.961Z,21.10
2023-02-17T21:24:09.193Z,21.10
2023-02-17T21:26:37.376Z,21.10
2023-02-17T21:29:06.886Z,21.10
2023-02-17T21:31:36.065Z,21.10
2023-02-17T21:34:04.582Z,20.90
2023-02-17T21:36:33.376Z,21.00
2023-02-17T21:39:01.548Z,21.00
2023-02-17T21:41:31.809Z,21.10
2023-02-17T21:44:17.598Z,21.00
2023-02-17T21:46:47.251Z,21.00
2023-02-17T21:49:15.355Z,21.00
2023-02-17T21:51:43.423Z,20.90
2023-02-17T21:54:11.808Z,20.90
2023-02-17T21:56:40.101Z,20.80
2023-02-17T21:59:08.984Z,20.80
2023-02-17T22:01:37.205Z,20.80
2023-02-17T22:04:07.345Z,20.70
2023-02-17T22:06:37.316Z,20.70
2023-02-17T22:09:06.263Z,20.70
2023-02-17T22:11:36.232Z,20.60
2023-02-17T22:14:05.544Z,20.60
2023-02-17T22:16:36.228Z,20.60
2023-02-17T22:19:06.719Z,20.60
2023-02-17T22:21:35.576Z,20.50
2023-02-17T22:24:04.125Z,20.50
2023-02-17T22:26:32.608Z,20.50
2023-02-17T22:29:00.669Z,20.40
2023-02-17T22:31:30.814Z,20.40
2023-02-17T22:34:00.178Z,20.30
2023-02-17T22:36:31.956Z,20.30
2023-02-17T22:39:00.345Z,20.30
2023-02-17T22:41:28.872Z,20.20
2023-02-17T22:43:56.980Z,20.20
2023-02-17T22:46:27.255Z,20.20
2023-02-17T22:48:57.081Z,20.30
2023-02-17T22:51:27.313Z,20.30
2023-02-17T22:53:57.211Z,20.30
2023-02-17T22:56:25.802Z,20.20
2023-02-17T22:58:56.485Z,20.20
2023-02-17T23:01:25.601Z,20.20
2023-02-17T23:03:54.744Z,20.20
2023-02-17T23:06:24.802Z,20.20
2023-02-17T23:08:54.001Z,20.20
2023-02-17T23:11:40.137Z,20.10
2023-02-17T23:14:08.783Z,20.10
2023-02-17T23:16:36.997Z,20.10
2023-02-17T23:19:08.129Z,20.00
2023-02-17T23:21:36.771Z,20.00
2023-02-17T23:24:05.560Z,20.00
2023-02-17T23:26:34.989Z,19.90
2023-02-17T23:29:03.024Z,19.90
2023-02-17T23:31:31.166Z,19.90
2023-02-17T23:33:59.285Z,19.90
2023-02-17T23:36:27.568Z,19.90
2023-02-17T23:38:56.661Z,19.80
2023-02-17T23:41:24.919Z,19.80
2023-02-17T23:43:54.398Z,19.80
2023-02-17T23:46:22.620Z,19.90
2023-02-17T23:48:50.772Z,19.80
2023-02-17T23:51:20.367Z,19.80
2023-02-17T23:53:49.320Z,19.80
2023-02-17T23:56:20.239Z,19.80
2023-02-17T23:58:48.383Z,19.90
